• Join FlightAware (Why Join?)
  • Login
  • US Flag 
09:44PM EDT


 

Airport Tracker/Info


-or-


 

Live Flight TrackerFlight Track Log ✈ N16112 ✈ 23-Apr-2013 ✈ KIAH - KIAD

Flight Track Log - Related Links

Times and Time Zones

All times are in EDT time to prevent confusion due to time zone crossing. See the N16112 flight status page for this flight to view local times or setup timezone preferences in your user account.

Time Position Orientation Groundspeed Altitude Reporting Facility
EDT Latitude Longitude Course Direction KTS MPH feet Rate Location/Type
11:57AM 29.9617 -95.3436 95° East 159 183 700  Level Houston Center
11:58AM 29.9469 -95.2972 110° East 192 221 2,400 1,500 Climbing Houston Center
11:59AM 29.9469 -95.2503 90° East 203 234 3,500 1,860 Climbing Houston Center
12:00PM 29.9270 -94.9593 97° East  Level FlightAware Approximate
12:00PM 29.9633 -95.1500 79° East 255 293 6,000  Level Houston Center
12:01PM 29.9139 -94.8336 95° East  Level FlightAware Approximate
12:01PM 29.9597 -95.0494 92° East 277 319 8,400  Level Houston Center
12:02PM 29.9034 -94.7077 95° East  Level FlightAware Approximate
12:02PM 29.9511 -94.9706 97° East 284 327 10,100  Level Houston Center
12:03PM 29.9381 -94.8761 99° East 292 336 11,500 1,320 Climbing Houston Center
12:04PM 29.9242 -94.7708 99° East 318 366 12,900 1,200 Climbing Houston Center
12:05PM 29.9092 -94.6586 99° East 345 397 14,000 1,080 Climbing Houston Center
12:06PM 29.8931 -94.5403 99° East 364 419 15,200 1,200 Climbing Houston Center
12:07PM 29.8717 -94.3936 100° East 382 440 16,500 1,140 Climbing Houston Center
12:08PM 29.8586 -94.2650 97° East 397 457 17,600 1,140 Climbing Houston Center
12:09PM 29.8567 -94.1347 91° East 401 461 18,900 1,260 Climbing Houston Center
12:10PM 29.8561 -94.0069 90° East 402 463 20,300 1,260 Climbing Houston Center
12:11PM 29.8706 -93.8778 83° East 410 472 21,600 1,320 Climbing Houston Center
12:12PM 29.8850 -93.7517 82° East 405 466 23,100 1,500 Climbing Houston Center
12:13PM 29.9003 -93.5992 83° East 402 463 24,800 1,260 Climbing Houston Center
12:14PM 29.9131 -93.4697 83° East 408 470 25,800 1,080 Climbing Houston Center
12:15PM 29.9264 -93.3383 83° East 415 478 27,100 1,200 Climbing Houston Center
12:16PM 29.9392 -93.2089 83° East 413 475 28,300 1,140 Climbing Houston Center
12:17PM 29.9556 -93.0525 83° East 413 475 29,500 1,080 Climbing Houston Center
12:18PM 29.9683 -92.9222 84° East 411 473 30,600 1,020 Climbing Houston Center
12:19PM 29.9803 -92.7928 84° East 410 472 31,700 960 Climbing Houston Center
12:21PM 29.9906 -92.6619 85° East 412 474 32,700 840 Climbing Houston Center
12:22PM 30.0000 -92.5319 85° East 409 471 33,500 600 Climbing Houston Center
12:23PM 30.0108 -92.3992 85° East 416 479 34,000 540 Climbing Houston Center
12:24PM 30.0242 -92.2383 84° East 421 484 34,700 480 Climbing Houston Center
12:25PM 30.0331 -92.1008 86° East 428 493 35,000 120 Climbing Houston Center
12:26PM 30.0444 -91.9606 85° East 439 505 35,000  Level Houston Center
12:27PM 30.0564 -91.8117 85° East 460 529 35,000  Level Houston Center
12:28PM 30.0669 -91.6589 85° East 482 555 35,000  Level Houston Center
12:29PM 30.0817 -91.4689 85° East 497 572 35,000 180 Level Houston Center
12:30PM 30.0922 -91.3058 86° East 508 585 35,400 480 Climbing Houston Center
12:31PM 30.1036 -91.1447 85° East 505 581 36,100 660 Climbing Houston Center
12:32PM 30.1150 -90.9861 85° East 498 573 36,800 420 Climbing Houston Center
12:33PM 30.1453 -90.8361 77° East 481 554 37,000 60 Climbing Houston Center
12:34PM 30.1833 -90.6833 74° East 493 567 37,000  Level Houston Center
12:35PM 30.2283 -90.4994 74° East 495 570 37,000  Level Houston Center
12:36PM 30.2653 -90.3444 75° East 501 577 37,000  Level Houston Center
12:37PM 30.3025 -90.1881 75° East 504 580 37,000  Level Houston Center
12:38PM 30.3400 -90.0317 74° East 505 581 37,000  Level Houston Center
12:39PM 30.3828 -89.8503 75° East 506 582 37,000  Level Houston Center
12:40PM 30.4367 -89.7039 67° East 496 571 37,000  Level Houston Center
12:41PM 30.4936 -89.5700 64° Northeast 499 574 37,000  Level Houston Center
12:42PM 30.5533 -89.4267 64° Northeast 495 570 37,000  Level Houston Center
12:43PM 30.6247 -89.2544 64° Northeast 493 567 37,000  Level Houston Center
12:44PM 30.6836 -89.1114 64° Northeast 492 566 37,000  Level Houston Center
12:45PM 30.7419 -88.9681 65° Northeast 490 564 37,000  Level Houston Center
12:46PM 30.8047 -88.8158 64° Northeast 488 562 37,000  Level Houston Center
12:47PM 30.8639 -88.6736 64° Northeast 489 563 37,000  Level Houston Center
12:48PM 30.9175 -88.5425 64° Northeast 484 557 37,000  Level Houston Center
12:49PM 30.9869 -88.3733 64° Northeast 482 555 37,000  Level Houston Center
12:51PM 31.0439 -88.2297 65° Northeast 486 559 37,000  Level Houston Center
12:52PM 31.1036 -88.0892 64° Northeast 487 560 37,000  Level Houston Center
12:53PM 31.1600 -87.9478 65° Northeast 483 556 37,000  Level Houston Center
12:54PM 31.2172 -87.8061 65° Northeast 482 555 37,000  Level Houston Center
12:55PM 31.2833 -87.6394 65° Northeast 484 557 37,000  Level Houston Center
12:56PM 31.3561 -87.5131 56° Northeast 474 545 37,000  Level Houston Center
12:56PM 31.3944 -87.4617 49° Northeast 468 539 37,000  Level Atlanta Center
12:57PM 31.4811 -87.3481 48° Northeast 463 533 37,000  Level Atlanta Center
12:58PM 31.5675 -87.2342 48° Northeast 463 533 37,000  Level Atlanta Center
12:59PM 31.6539 -87.1178 49° Northeast 463 533 37,000  Level Atlanta Center
01:00PM 31.7386 -86.9886 52° Northeast 463 533 37,000  Level Atlanta Center
01:01PM 31.8225 -86.8742 49° Northeast 463 533 37,000  Level Atlanta Center
01:02PM 31.9108 -86.7569 48° Northeast 463 533 37,000  Level Atlanta Center
01:03PM 31.9903 -86.6567 47° Northeast 471 542 37,000  Level Atlanta Center
01:04PM 32.0761 -86.5389 49° Northeast 471 542 37,000  Level Atlanta Center
01:05PM 32.1600 -86.4211 50° Northeast 471 542 37,000  Level Atlanta Center
01:06PM 32.2417 -86.2883 54° Northeast 465 535 37,000  Level Atlanta Center
01:07PM 32.3294 -86.1650 50° Northeast 470 541 37,000  Level Atlanta Center
01:08PM 32.4067 -86.0439 53° Northeast 470 541 37,000  Level Atlanta Center
01:09PM 32.4878 -85.9225 52° Northeast 470 541 37,000  Level Atlanta Center
01:10PM 32.5667 -85.8086 51° Northeast 482 555 37,000  Level Atlanta Center
01:11PM 32.6478 -85.6892 51° Northeast 482 555 37,000  Level Atlanta Center
01:12PM 32.7286 -85.5672 52° Northeast 477 549 37,000  Level Atlanta Center
01:13PM 32.8053 -85.4450 53° Northeast 470 541 37,000  Level Atlanta Center
01:14PM 32.8900 -85.3228 50° Northeast 470 541 37,000  Level Atlanta Center
01:15PM 32.9706 -85.2000 52° Northeast 465 535 37,000  Level Atlanta Center
01:16PM 33.0489 -85.0847 51° Northeast 460 529 37,000  Level Atlanta Center
01:17PM 33.1311 -84.9617 51° Northeast 460 529 37,000  Level Atlanta Center
01:18PM 33.2178 -84.8233 53° Northeast 471 542 37,000  Level Atlanta Center
01:19PM 33.2978 -84.7025 52° Northeast 471 542 37,000  Level Atlanta Center
01:20PM 33.3797 -84.5761 52° Northeast 471 542 37,000  Level Atlanta Center
01:21PM 33.4575 -84.4547 52° Northeast 461 531 37,000  Level Atlanta Center
01:22PM 33.5372 -84.3303 52° Northeast 466 536 37,000  Level Atlanta Center
01:23PM 33.6083 -84.2208 52° Northeast 466 536 37,000  Level Atlanta Center
01:24PM 33.6983 -84.0814 52° Northeast 466 536 37,000  Level Atlanta Center
01:25PM 33.7756 -83.9564 53° Northeast 466 536 37,000  Level Atlanta Center
01:26PM 33.8547 -83.8361 52° Northeast 466 536 37,000  Level Atlanta Center
01:27PM 33.9336 -83.7108 53° Northeast 466 536 37,000  Level Atlanta Center
01:28PM 34.0106 -83.5878 53° Northeast 466 536 37,000  Level Atlanta Center
01:29PM 34.0892 -83.4669 52° Northeast 460 529 37,000  Level Atlanta Center
01:30PM 34.1681 -83.3408 53° Northeast 460 529 37,000  Level Atlanta Center
01:31PM 34.2444 -83.2169 53° Northeast 460 529 37,000  Level Atlanta Center
01:32PM 34.3208 -83.0931 53° Northeast 460 529 37,000  Level Atlanta Center
01:33PM 34.3969 -82.9689 53° Northeast 460 529 37,000  Level Atlanta Center
01:34PM 34.4647 -82.8572 54° Northeast 455 524 37,000  Level Atlanta Center
01:35PM 34.5450 -82.7375 51° Northeast 461 531 37,000  Level Atlanta Center
01:36PM 34.6208 -82.6178 52° Northeast 456 525 37,000  Level Atlanta Center
01:37PM 34.6964 -82.4850 55° Northeast 441 507 37,000  Level Atlanta Center
01:38PM 34.7700 -82.3622 54° Northeast 441 507 37,000  Level Atlanta Center
01:39PM 34.8433 -82.2419 53° Northeast 436 502 37,000  Level Atlanta Center
01:40PM 34.9025 -82.1444 53° Northeast 436 502 37,000  Level Atlanta Center
01:41PM 34.9900 -82.0031 53° Northeast 436 502 37,000  Level Atlanta Center
01:42PM 35.0608 -81.8769 56° Northeast 441 507 37,000  Level Atlanta Center
01:43PM 35.1275 -81.7533 57° Northeast 441 507 37,000  Level Atlanta Center
01:44PM 35.1939 -81.6269 57° Northeast 441 507 37,000  Level Atlanta Center
01:45PM 35.2622 -81.4978 57° Northeast 441 507 37,000  Level Atlanta Center
01:46PM 35.3283 -81.3708 57° Northeast 441 507 37,000 -360 Level Atlanta Center
01:47PM 35.3922 -81.2439 58° Northeast 441 507 36,300 -900 Descending Atlanta Center
01:48PM 35.4600 -81.1117 58° Northeast 451 519 35,300 -1,080 Descending Atlanta Center
01:49PM 35.5258 -80.9869 57° Northeast 444 511 34,200 -960 Descending Atlanta Center
01:50PM 35.5917 -80.8617 57° Northeast 439 505 33,400 -600 Descending Atlanta Center
01:51PM 35.6592 -80.7339 57° Northeast 439 505 33,000 -240 Descending Atlanta Center
01:52PM 35.7264 -80.6033 58° Northeast 444 511 33,000  Level Atlanta Center
01:55PM 35.8822 -80.2936 58° Northeast 446 513 33,000  Level Washington Center
01:56PM 35.9497 -80.1642 57° Northeast 441 507 33,000  Level Washington Center
01:57PM 36.0169 -80.0397 56° Northeast 441 507 33,000  Level Washington Center
01:58PM 36.0822 -79.9125 58° Northeast 436 502 33,000  Level Washington Center
01:59PM 36.1533 -79.7903 54° Northeast 436 502 33,000  Level Washington Center
02:00PM 36.2289 -79.6553 55° Northeast 431 496 33,000  Level Washington Center
02:01PM 36.2978 -79.5325 55° Northeast 431 496 33,000  Level Washington Center
02:02PM 36.3597 -79.4222 55° Northeast 431 496 33,000  Level Washington Center
02:03PM 36.4328 -79.2889 56° Northeast 431 496 33,000 -780 Level Washington Center
02:04PM 36.5014 -79.1656 55° Northeast 431 496 31,500 -1,980 Descending Washington Center
02:05PM 36.5650 -79.0572 54° Northeast 439 505 29,100 -2,400 Descending Washington Center
02:06PM 36.6419 -78.9208 55° Northeast 439 505 26,700 -2,100 Descending Washington Center
02:07PM 36.7014 -78.8069 57° Northeast 439 505 25,000 -900 Descending Washington Center
02:08PM 36.7736 -78.6750 56° Northeast 429 494 25,000  Level Washington Center
02:09PM 36.8414 -78.5531 55° Northeast 429 494 25,000  Level Washington Center
02:10PM 36.9003 -78.4464 55° Northeast 429 494 25,000  Level Washington Center
02:11PM 36.9744 -78.3086 56° Northeast 424 488 25,000 -120 Level Washington Center
02:12PM 37.0436 -78.2044 50° Northeast 429 494 24,800 -840 Descending Washington Center
02:13PM 37.1392 -78.1269 33° Northeast 408 470 23,400 -1,440 Descending Washington Center
02:14PM 37.2386 -78.0519 31° Northeast 408 470 22,000 -720 Descending Washington Center
02:15PM 37.3383 -77.9767 31° Northeast 413 475 22,000 -720 Level Washington Center
02:16PM 37.4292 -77.9064 32° Northeast 407 468 20,600 -1,320 Descending Washington Center
02:17PM 37.5183 -77.8383 31° Northeast 391 450 19,400 -1,140 Descending Washington Center
02:18PM 37.6153 -77.7783 26° Northeast 379 436 18,400 -900 Descending Washington Center
02:19PM 37.7122 -77.7181 26° Northeast 379 436 17,700 -900 Descending Washington Center
02:20PM 37.8114 -77.6606 25° Northeast 384 442 16,700 -900 Descending Washington Center
02:21PM 37.9125 -77.6028 24° Northeast 389 448 15,900 -1,440 Descending Washington Center
02:22PM 38.0072 -77.5472 25° Northeast 384 442 13,900 -2,100 Descending Washington Center
02:23PM 38.0997 -77.4969 23° Northeast 379 436 11,700 -1,980 Descending Washington Center
02:24PM 38.1817 -77.4514 24° Northeast 347 399 10,000 -1,260 Descending Washington Center
02:25PM 38.2589 -77.4506 360° North 288 331 9,200 -840 Descending Washington Center
02:26PM 38.3361 -77.4553 357° North 283 326 8,400 -780 Descending Washington Center
02:27PM 38.4047 -77.4569 359° North 283 326 7,700 -780 Descending Washington Center
02:28PM 38.4964 -77.4592 359° North 272 313 6,900 -780 Descending Washington Center
02:29PM 38.5694 -77.4636 357° North 266 306 6,200 -720 Descending Washington Center
02:30PM 38.6403 -77.4628 North 261 300 5,500 -660 Descending Washington Center
02:30PM 38.6667 -77.4667 353° North 269 310 5,300 -900 Descending Potomac TRACON
02:31PM 38.7333 -77.4667 360° North 260 299 4,400 -1,020 Descending Potomac TRACON